createdAt,value
2018-11-29T00:01:36.840Z,85.15
2018-11-29T00:04:03.207Z,86.12
2018-11-29T00:06:29.509Z,86.50
2018-11-29T00:08:55.808Z,86.22
2018-11-29T00:11:22.096Z,86.37
2018-11-29T00:13:48.433Z,86.17
2018-11-29T00:16:14.740Z,86.13
2018-11-29T00:18:41.053Z,86.34
2018-11-29T00:21:07.352Z,86.39
2018-11-29T00:23:33.663Z,86.33
2018-11-29T00:25:59.963Z,86.36
2018-11-29T00:28:26.293Z,85.57
2018-11-29T00:30:52.594Z,85.83
2018-11-29T00:33:18.885Z,86.60
2018-11-29T00:35:45.220Z,86.19
2018-11-29T00:38:11.533Z,85.83
2018-11-29T00:40:37.829Z,85.02
2018-11-29T00:43:04.152Z,85.20
2018-11-29T00:45:30.486Z,86.64
2018-11-29T00:47:56.779Z,85.93
2018-11-29T00:50:23.066Z,85.83
2018-11-29T00:52:49.391Z,86.18
2018-11-29T00:55:15.690Z,86.19
2018-11-29T00:57:42.018Z,86.78
2018-11-29T01:00:08.319Z,87.36
2018-11-29T01:02:34.637Z,87.04
2018-11-29T01:05:00.972Z,87.06
2018-11-29T01:07:27.286Z,87.36
2018-11-29T01:09:53.608Z,87.42
2018-11-29T01:12:19.918Z,87.18
2018-11-29T01:14:46.212Z,87.31
2018-11-29T01:17:12.518Z,86.75
2018-11-29T01:19:38.858Z,87.21
2018-11-29T01:22:05.146Z,87.05
2018-11-29T01:24:31.440Z,87.09
2018-11-29T01:26:57.768Z,86.98
2018-11-29T01:29:24.098Z,86.33
2018-11-29T01:31:50.410Z,86.95
2018-11-29T01:34:16.747Z,87.03
2018-11-29T01:36:43.065Z,86.39
2018-11-29T01:39:09.379Z,86.41
2018-11-29T01:41:35.725Z,86.30
2018-11-29T01:44:02.053Z,86.20
2018-11-29T01:46:28.343Z,86.77
2018-11-29T01:48:54.633Z,87.06
2018-11-29T01:51:21.009Z,87.46
2018-11-29T01:53:47.301Z,85.98
2018-11-29T01:56:13.601Z,86.07
2018-11-29T01:58:39.911Z,86.34
2018-11-29T02:01:06.233Z,86.63
2018-11-29T02:03:32.557Z,87.39
2018-11-29T02:05:58.862Z,86.43
2018-11-29T02:08:25.240Z,86.47
2018-11-29T02:10:51.546Z,86.49
2018-11-29T02:13:17.867Z,86.89
2018-11-29T02:15:44.184Z,86.89
2018-11-29T02:18:10.501Z,87.09
2018-11-29T02:20:36.799Z,86.59
2018-11-29T02:23:03.134Z,86.75
2018-11-29T02:25:29.454Z,86.65
2018-11-29T02:27:55.749Z,87.33
2018-11-29T02:30:22.081Z,87.51
2018-11-29T02:32:48.376Z,86.84
2018-11-29T02:35:14.678Z,86.98
2018-11-29T02:37:41.005Z,86.54
2018-11-29T02:40:07.327Z,86.64
2018-11-29T02:42:33.643Z,87.03
2018-11-29T02:44:59.982Z,87.42
2018-11-29T02:47:26.284Z,87.69
2018-11-29T02:49:52.580Z,87.97
2018-11-29T02:52:18.887Z,88.17
2018-11-29T02:54:45.243Z,88.20
2018-11-29T02:57:11.532Z,87.95
2018-11-29T02:59:37.853Z,88.11
2018-11-29T03:02:04.152Z,88.65
2018-11-29T03:04:30.437Z,88.49
2018-11-29T03:06:56.762Z,89.00
2018-11-29T03:09:23.107Z,89.13
2018-11-29T03:11:49.398Z,89.74
2018-11-29T03:14:15.694Z,90.00
2018-11-29T03:16:42.001Z,90.22
2018-11-29T03:19:08.310Z,90.30
2018-11-29T03:21:34.626Z,90.44
2018-11-29T03:24:00.949Z,90.85
2018-11-29T03:26:27.256Z,90.95
2018-11-29T03:28:53.572Z,91.03
2018-11-29T03:31:19.880Z,91.61
2018-11-29T03:33:46.196Z,92.00
2018-11-29T03:36:12.484Z,92.26
2018-11-29T03:38:38.813Z,92.16
2018-11-29T03:41:05.139Z,91.62
2018-11-29T03:43:31.470Z,91.17
2018-11-29T03:45:57.825Z,90.49
2018-11-29T03:48:24.145Z,89.40
2018-11-29T03:50:50.517Z,89.96
2018-11-29T03:53:16.846Z,91.08
2018-11-29T03:55:43.157Z,91.42
2018-11-29T03:58:09.521Z,91.45
2018-11-29T04:00:35.845Z,91.47
2018-11-29T04:03:02.168Z,91.07
2018-11-29T04:05:28.472Z,91.54
2018-11-29T04:07:54.770Z,91.79
2018-11-29T04:10:21.078Z,91.70
2018-11-29T04:12:47.392Z,91.70
2018-11-29T04:15:13.719Z,91.46
2018-11-29T04:17:40.960Z,91.40
2018-11-29T04:20:06.346Z,91.31
2018-11-29T04:22:32.662Z,91.12
2018-11-29T04:24:58.948Z,91.37
2018-11-29T04:27:25.262Z,91.97
2018-11-29T04:29:51.550Z,91.61
2018-11-29T04:32:17.877Z,91.95
2018-11-29T04:34:44.178Z,91.69
2018-11-29T04:37:10.503Z,92.03
2018-11-29T04:39:36.817Z,92.45
2018-11-29T04:42:03.112Z,92.46
2018-11-29T04:44:29.452Z,93.00
2018-11-29T04:46:55.773Z,93.64
2018-11-29T04:49:22.061Z,94.08
2018-11-29T04:51:48.377Z,94.31
2018-11-29T04:54:14.673Z,94.50
2018-11-29T04:56:41.019Z,94.30
2018-11-29T04:59:07.345Z,94.16
2018-11-29T05:01:33.643Z,93.99
2018-11-29T05:03:59.925Z,93.56
2018-11-29T05:06:26.265Z,93.32
2018-11-29T05:08:52.558Z,92.32
2018-11-29T05:11:18.892Z,91.68
2018-11-29T05:13:45.191Z,91.13
2018-11-29T05:16:11.489Z,91.11
2018-11-29T05:18:37.778Z,90.60
2018-11-29T05:21:04.088Z,90.57
2018-11-29T05:23:30.403Z,90.73
2018-11-29T05:25:56.720Z,90.31
2018-11-29T05:28:23.092Z,89.87
2018-11-29T05:30:49.398Z,89.19
2018-11-29T05:33:15.685Z,88.75
2018-11-29T05:35:42.010Z,89.03
2018-11-29T05:38:08.317Z,89.21
2018-11-29T05:40:34.685Z,88.67
2018-11-29T05:43:00.996Z,89.85
2018-11-29T05:45:27.386Z,89.64
2018-11-29T05:47:53.706Z,88.38
2018-11-29T05:50:20.043Z,87.07
2018-11-29T05:52:46.343Z,87.45
2018-11-29T05:55:12.650Z,87.81
2018-11-29T05:57:38.958Z,87.44
2018-11-29T06:00:06.031Z,87.74
2018-11-29T06:02:32.380Z,88.08
2018-11-29T06:04:58.660Z,87.70
2018-11-29T06:07:24.999Z,87.83
2018-11-29T06:09:51.294Z,87.82
2018-11-29T06:12:17.587Z,87.63
2018-11-29T06:14:43.933Z,88.21
2018-11-29T06:17:10.269Z,87.96
2018-11-29T06:19:36.584Z,87.46
2018-11-29T06:22:02.881Z,86.69
2018-11-29T06:24:29.211Z,87.03
2018-11-29T06:26:55.526Z,87.18
2018-11-29T06:29:21.862Z,86.84
2018-11-29T06:31:48.162Z,87.56
2018-11-29T06:34:14.458Z,87.59
2018-11-29T06:36:40.770Z,87.73
2018-11-29T06:39:07.069Z,87.65
2018-11-29T06:41:33.409Z,87.12
2018-11-29T06:43:59.729Z,86.90
2018-11-29T06:46:26.046Z,87.64
2018-11-29T06:48:52.333Z,87.66
2018-11-29T06:51:18.625Z,87.10
2018-11-29T06:53:44.954Z,86.51
2018-11-29T06:56:11.250Z,86.38
2018-11-29T06:58:37.568Z,86.67
2018-11-29T07:01:03.863Z,86.78
2018-11-29T07:03:30.197Z,86.17
2018-11-29T07:05:56.501Z,85.88
2018-11-29T07:08:22.812Z,85.59
2018-11-29T07:10:49.141Z,86.30
2018-11-29T07:13:15.447Z,85.50
2018-11-29T07:15:41.824Z,85.20
2018-11-29T07:18:08.193Z,85.70
2018-11-29T07:20:34.487Z,85.65
2018-11-29T07:23:00.785Z,84.01
2018-11-29T07:25:27.102Z,83.57
2018-11-29T07:27:53.419Z,83.84
2018-11-29T07:30:19.719Z,84.23
2018-11-29T07:32:46.042Z,84.16
2018-11-29T07:35:12.344Z,83.89
2018-11-29T07:37:38.665Z,84.10
2018-11-29T07:40:04.982Z,83.36
2018-11-29T07:42:31.327Z,83.39
2018-11-29T07:44:57.649Z,83.17
2018-11-29T07:47:23.979Z,82.58
2018-11-29T07:49:50.314Z,82.61
2018-11-29T07:52:16.640Z,83.49
2018-11-29T07:54:42.963Z,82.42
2018-11-29T07:57:09.270Z,82.73
2018-11-29T07:59:35.625Z,81.84
2018-11-29T08:02:01.999Z,82.39
2018-11-29T08:04:28.272Z,82.33
2018-11-29T08:06:54.578Z,81.55
2018-11-29T08:09:20.902Z,80.84
2018-11-29T08:11:47.208Z,81.57
2018-11-29T08:14:13.547Z,81.66
2018-11-29T08:16:39.861Z,82.09
2018-11-29T08:19:06.154Z,81.30
2018-11-29T08:21:32.527Z,78.81
2018-11-29T08:23:58.815Z,79.69
2018-11-29T08:26:25.204Z,80.51
2018-11-29T08:28:51.537Z,80.84
2018-11-29T08:31:17.865Z,80.86
2018-11-29T08:33:44.162Z,78.34
2018-11-29T08:36:10.539Z,78.32
2018-11-29T08:38:36.843Z,78.45
2018-11-29T08:41:03.159Z,78.82
2018-11-29T08:43:29.495Z,78.35
2018-11-29T08:45:55.804Z,77.67
2018-11-29T08:48:22.121Z,77.86
2018-11-29T08:50:48.464Z,77.95
2018-11-29T08:53:14.815Z,78.75
2018-11-29T08:55:41.106Z,78.08
2018-11-29T08:58:07.443Z,77.64
2018-11-29T09:00:33.781Z,78.47
2018-11-29T09:03:00.094Z,78.04
2018-11-29T09:05:26.420Z,78.26
2018-11-29T09:07:52.731Z,77.47
2018-11-29T09:10:19.020Z,76.19
2018-11-29T09:12:45.314Z,78.12
2018-11-29T09:15:11.620Z,76.22
2018-11-29T09:17:37.937Z,77.43
2018-11-29T09:20:04.256Z,77.20
2018-11-29T09:22:30.638Z,77.63
2018-11-29T09:24:56.927Z,76.43
2018-11-29T09:27:23.284Z,76.22
2018-11-29T09:29:49.612Z,78.37
2018-11-29T09:32:15.939Z,76.50
2018-11-29T09:34:42.296Z,76.28
2018-11-29T09:37:08.616Z,77.70
2018-11-29T09:39:34.987Z,77.65
2018-11-29T09:42:02.961Z,77.33
2018-11-29T09:44:27.661Z,76.75
2018-11-29T09:46:53.989Z,78.34
2018-11-29T09:49:20.353Z,79.74
2018-11-29T09:51:46.668Z,80.17
2018-11-29T09:54:12.997Z,78.77
2018-11-29T09:56:39.306Z,79.71
2018-11-29T09:59:05.598Z,78.77
2018-11-29T10:01:31.935Z,79.81
2018-11-29T10:03:58.232Z,80.00
2018-11-29T10:06:24.547Z,79.48
2018-11-29T10:08:50.923Z,78.21
2018-11-29T10:11:17.254Z,80.43
2018-11-29T10:13:46.391Z,79.95
2018-11-29T10:16:09.890Z,80.81
2018-11-29T10:18:36.190Z,81.44
2018-11-29T10:21:02.527Z,78.88
2018-11-29T10:23:28.847Z,80.27
2018-11-29T10:25:55.158Z,79.42
2018-11-29T10:28:21.479Z,79.34
2018-11-29T10:30:47.775Z,80.24
2018-11-29T10:33:14.100Z,80.32
2018-11-29T10:35:40.429Z,80.23
2018-11-29T10:38:06.729Z,79.58
2018-11-29T10:40:33.041Z,79.18
2018-11-29T10:42:59.405Z,79.57
2018-11-29T10:45:25.681Z,77.82
2018-11-29T10:47:52.769Z,79.43
2018-11-29T10:50:18.342Z,79.57
2018-11-29T10:52:44.633Z,77.53
2018-11-29T10:55:10.971Z,79.26
2018-11-29T10:57:37.347Z,79.74
2018-11-29T11:00:03.662Z,80.36
2018-11-29T11:02:29.975Z,80.62
2018-11-29T11:04:56.311Z,80.80
2018-11-29T11:07:22.582Z,78.60
2018-11-29T11:09:48.873Z,80.63
2018-11-29T11:12:18.644Z,79.98
2018-11-29T11:14:41.533Z,80.93
2018-11-29T11:17:07.851Z,81.02
2018-11-29T11:19:34.220Z,81.93
2018-11-29T11:22:00.517Z,82.27
2018-11-29T11:24:26.818Z,82.36
2018-11-29T11:26:53.156Z,81.31
2018-11-29T11:29:19.499Z,81.50
2018-11-29T11:31:45.823Z,82.05
2018-11-29T11:34:12.135Z,83.08
2018-11-29T11:36:38.445Z,81.74
2018-11-29T11:39:04.776Z,80.44
2018-11-29T11:41:31.112Z,80.71
2018-11-29T11:43:57.425Z,81.16
2018-11-29T11:46:23.763Z,81.72
2018-11-29T11:48:50.164Z,81.60
2018-11-29T11:51:16.448Z,82.36
2018-11-29T11:53:42.741Z,81.65
2018-11-29T11:56:09.062Z,81.80
2018-11-29T11:58:35.408Z,81.66
2018-11-29T12:01:01.765Z,80.67
2018-11-29T12:03:28.075Z,80.12
2018-11-29T12:05:54.394Z,81.52
2018-11-29T12:08:20.725Z,81.68
2018-11-29T12:10:47.038Z,81.71
2018-11-29T12:13:13.394Z,81.20
2018-11-29T12:15:39.690Z,81.76
2018-11-29T12:18:06.026Z,81.46
2018-11-29T12:20:32.359Z,82.10
2018-11-29T12:22:58.670Z,81.40
2018-11-29T12:25:24.981Z,81.49
2018-11-29T12:27:51.301Z,81.46
2018-11-29T12:30:17.591Z,82.37
2018-11-29T12:32:43.902Z,82.68
2018-11-29T12:35:10.247Z,82.24
2018-11-29T12:37:36.568Z,82.09
2018-11-29T12:40:02.971Z,82.10
2018-11-29T12:42:29.268Z,82.08
2018-11-29T12:44:55.586Z,82.36
2018-11-29T12:47:21.880Z,82.04
2018-11-29T12:49:48.200Z,82.35
2018-11-29T12:52:14.574Z,81.59
2018-11-29T12:54:40.875Z,81.12
2018-11-29T12:57:07.205Z,81.30
2018-11-29T12:59:33.537Z,81.79
2018-11-29T13:01:59.850Z,82.59
2018-11-29T13:04:26.194Z,83.10
2018-11-29T13:06:52.497Z,82.05
2018-11-29T13:09:18.808Z,83.03
2018-11-29T13:11:45.099Z,82.78
2018-11-29T13:14:11.528Z,82.43
2018-11-29T13:16:37.750Z,81.69
2018-11-29T13:19:04.125Z,82.97
2018-11-29T13:21:30.417Z,81.80
2018-11-29T13:24:00.277Z,81.46
2018-11-29T13:26:23.073Z,81.80
2018-11-29T13:28:49.443Z,81.59
2018-11-29T13:31:15.706Z,81.28
2018-11-29T13:33:42.039Z,82.52
2018-11-29T13:36:08.312Z,82.88
2018-11-29T13:38:34.663Z,82.79
2018-11-29T13:41:00.939Z,82.64
2018-11-29T13:43:27.267Z,82.82
2018-11-29T13:45:53.610Z,83.00
2018-11-29T13:48:19.937Z,83.00
2018-11-29T13:50:46.270Z,81.87
2018-11-29T13:53:12.585Z,83.13
2018-11-29T13:55:39.090Z,83.91
2018-11-29T13:58:05.253Z,83.82
2018-11-29T14:00:31.610Z,83.97
2018-11-29T14:02:57.961Z,84.00
2018-11-29T14:05:24.314Z,84.18
2018-11-29T14:07:50.572Z,84.43
2018-11-29T14:10:16.909Z,84.55
2018-11-29T14:12:43.294Z,84.03
2018-11-29T14:15:09.650Z,84.47
2018-11-29T14:17:35.947Z,84.79
2018-11-29T14:20:02.287Z,85.02
2018-11-29T14:22:28.665Z,84.26
2018-11-29T14:24:55.040Z,85.75
2018-11-29T14:27:21.355Z,86.01
2018-11-29T14:29:47.787Z,85.55
2018-11-29T14:32:14.110Z,85.12
2018-11-29T14:34:40.454Z,85.35
2018-11-29T14:37:06.853Z,85.20
2018-11-29T14:39:33.320Z,85.25
2018-11-29T14:41:59.640Z,85.22
2018-11-29T14:44:25.997Z,86.24
2018-11-29T14:46:52.361Z,86.72
2018-11-29T14:49:18.650Z,85.83
2018-11-29T14:51:48.008Z,86.43
2018-11-29T14:54:11.326Z,86.22
2018-11-29T14:56:37.660Z,86.67
2018-11-29T14:59:03.993Z,86.60
2018-11-29T15:01:30.418Z,85.78
2018-11-29T15:03:56.773Z,86.36
2018-11-29T15:06:23.146Z,86.53
2018-11-29T15:08:49.465Z,86.78
2018-11-29T15:11:15.869Z,87.04
2018-11-29T15:13:42.159Z,87.68
2018-11-29T15:16:09.640Z,87.80
2018-11-29T15:18:36.072Z,87.39
2018-11-29T15:21:02.410Z,88.21
2018-11-29T15:23:28.718Z,88.39
2018-11-29T15:25:55.051Z,88.45
2018-11-29T15:28:21.356Z,88.62
2018-11-29T15:30:47.736Z,89.09
2018-11-29T15:33:14.050Z,89.14
2018-11-29T15:35:40.379Z,89.34
2018-11-29T15:38:06.753Z,88.72
2018-11-29T15:40:33.071Z,89.18
2018-11-29T15:42:59.405Z,88.92
2018-11-29T15:45:25.728Z,88.79
2018-11-29T15:47:52.034Z,88.66
2018-11-29T15:50:18.442Z,88.57
2018-11-29T15:52:44.707Z,88.22
2018-11-29T15:55:11.077Z,88.37
2018-11-29T15:57:37.471Z,88.32
2018-11-29T16:00:07.651Z,88.47
2018-11-29T16:02:33.959Z,88.16
2018-11-29T16:05:00.281Z,88.72
2018-11-29T16:07:27.094Z,87.73
2018-11-29T16:09:53.462Z,87.79
2018-11-29T16:12:19.756Z,87.61
2018-11-29T16:14:46.087Z,88.16
2018-11-29T16:17:12.519Z,87.68
2018-11-29T16:19:38.842Z,87.08
2018-11-29T16:22:05.192Z,87.04
2018-11-29T16:24:31.508Z,87.50
2018-11-29T16:26:57.934Z,87.13
2018-11-29T16:29:24.186Z,87.90
2018-11-29T16:31:50.608Z,87.66
2018-11-29T16:34:16.904Z,87.59
2018-11-29T16:36:43.244Z,86.98
2018-11-29T16:39:09.682Z,87.00
2018-11-29T16:41:36.010Z,87.27
2018-11-29T16:44:02.472Z,86.88
2018-11-29T16:46:28.769Z,86.79
2018-11-29T16:48:55.081Z,86.80
2018-11-29T16:51:21.414Z,86.32
2018-11-29T16:53:47.758Z,87.28
2018-11-29T16:56:14.228Z,86.49
2018-11-29T16:58:40.529Z,86.36
2018-11-29T17:01:09.008Z,86.24
2018-11-29T17:03:33.145Z,86.90
2018-11-29T17:05:59.469Z,86.89
2018-11-29T17:08:25.786Z,85.83
2018-11-29T17:10:52.080Z,85.44
2018-11-29T17:13:18.413Z,86.15
2018-11-29T17:15:44.748Z,85.55
2018-11-29T17:18:11.049Z,85.48
2018-11-29T17:20:37.420Z,85.38
2018-11-29T17:23:03.726Z,85.01
2018-11-29T17:25:30.044Z,85.03
2018-11-29T17:27:56.356Z,84.65
2018-11-29T17:30:23.885Z,85.44
2018-11-29T17:32:50.291Z,85.22
2018-11-29T17:35:16.558Z,84.96
2018-11-29T17:37:42.929Z,84.81
2018-11-29T17:40:09.260Z,85.26
2018-11-29T17:42:35.555Z,85.31
2018-11-29T17:45:01.874Z,84.69
2018-11-29T17:47:28.182Z,85.11
2018-11-29T17:49:54.512Z,84.22
2018-11-29T17:52:20.842Z,84.86
2018-11-29T17:54:47.236Z,85.70
2018-11-29T17:57:13.560Z,84.57
2018-11-29T17:59:39.889Z,84.63
2018-11-29T18:02:06.287Z,84.70
2018-11-29T18:04:32.579Z,84.38
2018-11-29T18:06:59.052Z,83.97
2018-11-29T18:09:25.356Z,82.88
2018-11-29T18:11:51.831Z,82.13
2018-11-29T18:14:18.248Z,82.34
2018-11-29T18:16:44.575Z,82.84
2018-11-29T18:19:13.103Z,82.87
2018-11-29T18:21:37.243Z,82.72
2018-11-29T18:24:03.558Z,82.63
2018-11-29T18:26:29.891Z,82.26
2018-11-29T18:28:56.155Z,83.25
2018-11-29T18:31:22.466Z,82.51
2018-11-29T18:33:48.832Z,82.98
2018-11-29T18:36:15.265Z,83.23
2018-11-29T18:38:41.507Z,83.27
2018-11-29T18:41:07.864Z,82.75
2018-11-29T18:43:34.162Z,82.22
2018-11-29T18:46:00.511Z,82.60
2018-11-29T18:48:26.882Z,82.32
2018-11-29T18:50:53.211Z,82.12
2018-11-29T18:53:19.532Z,81.76
2018-11-29T18:55:45.978Z,79.79
2018-11-29T18:58:12.295Z,80.87
2018-11-29T19:00:38.612Z,81.03
2018-11-29T19:03:04.932Z,81.28
2018-11-29T19:05:31.269Z,81.00
2018-11-29T19:07:57.592Z,80.83
2018-11-29T19:10:23.981Z,80.42
2018-11-29T19:12:50.395Z,80.67
2018-11-29T19:15:16.690Z,80.66
2018-11-29T19:17:43.063Z,80.14
2018-11-29T19:20:09.358Z,80.12
2018-11-29T19:22:35.665Z,80.07
2018-11-29T19:25:02.030Z,79.72
2018-11-29T19:27:28.381Z,79.39
2018-11-29T19:29:54.669Z,79.93
2018-11-29T19:32:21.034Z,79.91
2018-11-29T19:34:47.367Z,79.77
2018-11-29T19:37:13.679Z,80.17
2018-11-29T19:39:41.279Z,80.45
2018-11-29T19:42:06.305Z,80.10
2018-11-29T19:44:32.598Z,80.57
2018-11-29T19:46:58.944Z,80.75
2018-11-29T19:49:25.359Z,80.95
2018-11-29T19:51:51.654Z,80.58
2018-11-29T19:54:17.979Z,80.69
2018-11-29T19:56:44.284Z,80.24
2018-11-29T19:59:10.698Z,80.78
2018-11-29T20:01:37.051Z,80.56
2018-11-29T20:04:03.378Z,80.83
2018-11-29T20:06:29.818Z,81.25
2018-11-29T20:08:56.080Z,81.66
2018-11-29T20:11:22.557Z,81.87
2018-11-29T20:13:48.843Z,81.89
2018-11-29T20:16:15.308Z,82.04
2018-11-29T20:18:41.741Z,81.28
2018-11-29T20:21:08.065Z,81.07
2018-11-29T20:23:34.368Z,81.02
2018-11-29T20:26:00.733Z,81.19
2018-11-29T20:28:27.024Z,81.70
2018-11-29T20:30:53.380Z,81.79
2018-11-29T20:33:19.681Z,81.74
2018-11-29T20:35:46.012Z,82.00
2018-11-29T20:38:12.491Z,81.90
2018-11-29T20:40:38.829Z,81.32
2018-11-29T20:43:05.133Z,81.20
2018-11-29T20:45:31.441Z,81.75
2018-11-29T20:47:57.778Z,81.50
2018-11-29T20:50:24.087Z,81.57
2018-11-29T20:52:50.454Z,81.80
2018-11-29T20:55:16.799Z,81.97
2018-11-29T20:57:43.151Z,81.67
2018-11-29T21:00:09.443Z,81.34
2018-11-29T21:02:35.819Z,81.15
2018-11-29T21:05:02.151Z,80.36
2018-11-29T21:07:28.573Z,79.98
2018-11-29T21:09:54.923Z,78.61
2018-11-29T21:12:21.276Z,78.84
2018-11-29T21:14:47.567Z,78.76
2018-11-29T21:17:13.917Z,78.64
2018-11-29T21:19:40.221Z,79.18
2018-11-29T21:22:06.557Z,79.30
2018-11-29T21:24:32.903Z,79.76
2018-11-29T21:27:01.499Z,79.95
2018-11-29T21:29:27.795Z,79.54
2018-11-29T21:31:54.124Z,79.20
2018-11-29T21:34:20.459Z,78.81
2018-11-29T21:36:46.854Z,78.29
2018-11-29T21:39:13.192Z,78.37
2018-11-29T21:41:39.546Z,78.21
2018-11-29T21:44:05.840Z,77.82
2018-11-29T21:46:32.323Z,77.97
2018-11-29T21:48:58.617Z,77.96
2018-11-29T21:51:24.978Z,77.71
2018-11-29T21:53:51.301Z,78.03
2018-11-29T21:56:17.630Z,78.01
2018-11-29T21:58:43.951Z,77.98
2018-11-29T22:01:10.281Z,77.86
2018-11-29T22:03:36.587Z,77.80
2018-11-29T22:06:02.879Z,77.68
2018-11-29T22:08:29.211Z,78.19
2018-11-29T22:10:55.547Z,78.21
2018-11-29T22:13:21.919Z,78.18
2018-11-29T22:15:48.266Z,78.46
2018-11-29T22:18:14.594Z,78.41
2018-11-29T22:20:40.940Z,78.71
2018-11-29T22:23:07.254Z,78.67
2018-11-29T22:25:33.559Z,78.93
2018-11-29T22:27:59.863Z,79.00
2018-11-29T22:30:26.192Z,79.33
2018-11-29T22:32:52.538Z,79.41
2018-11-29T22:35:18.878Z,79.35
2018-11-29T22:37:45.229Z,79.46
2018-11-29T22:40:11.536Z,79.82
2018-11-29T22:42:37.857Z,79.87
2018-11-29T22:45:04.160Z,80.03
2018-11-29T22:47:30.455Z,80.10
2018-11-29T22:49:56.798Z,79.85
2018-11-29T22:52:23.117Z,80.02
2018-11-29T22:54:49.583Z,80.09
2018-11-29T22:57:15.870Z,80.43
2018-11-29T22:59:42.167Z,80.50
2018-11-29T23:02:08.477Z,80.70
2018-11-29T23:04:34.808Z,80.42
2018-11-29T23:07:01.110Z,80.09
2018-11-29T23:09:27.408Z,80.08
2018-11-29T23:11:53.731Z,79.73
2018-11-29T23:14:20.018Z,79.91
2018-11-29T23:16:46.326Z,80.15
2018-11-29T23:19:12.640Z,79.74
2018-11-29T23:21:38.975Z,79.81
2018-11-29T23:24:05.301Z,79.52
2018-11-29T23:26:31.674Z,79.72
2018-11-29T23:28:58.000Z,79.67
2018-11-29T23:31:24.502Z,79.41
2018-11-29T23:33:50.608Z,79.32
2018-11-29T23:36:16.905Z,79.62
2018-11-29T23:38:43.205Z,79.81
2018-11-29T23:41:09.939Z,80.14
2018-11-29T23:43:35.850Z,80.50
2018-11-29T23:46:02.149Z,80.27
2018-11-29T23:48:28.472Z,80.52
2018-11-29T23:50:54.778Z,79.97
2018-11-29T23:53:21.103Z,79.40
2018-11-29T23:55:47.539Z,79.18
2018-11-29T23:58:13.842Z,79.07
